Elburg, Netherlands
Current Conditions -  °F | °C
As of 10:25 AM on Saturday 25 Oct 2014 (Local Time) from EHDL Reporting Station
Haze Haze  
Wind Chill: 55°   Ceiling: 400
Heat Index: 55°   Visibility: 0.81mi
Dew Point: 55°   Wind: 7mph
Humidity: 100%   Direction: 230°SW
Pressure: 30.03"   Gusts: NA
Location:  52.45°N, 5.84°E
Report Text: EHDL 250825Z AUTO 23006KT 1300 BR SCT002 OVC004 13/13 Q1017 AMB
Loading
Personal Weather Stations






























Interactive Weather Map
Tropical Storm Tracking
New forecast layout! Learn more

10-Day Weather Forecast

Advertisements
Track Severe Weather on mobile